Time;durP1;ratioP1;P1;durP2;ratioP2;P2;SDS_P1;SDS_P2;PMS_P1;PMS_P2;Temp;Humidity;BMP_temperature;BMP_pressure;BME280_temperature;BME280_humidity;BME280_pressure;Samples;Min_cycle;Max_cycle;Signal;HPM_P1;HPM_P2
2022/08/14 00:01:22;;;;;;;8.90;7.75;;;20.30;99.90;;;;;;4946273;28;20175;-75
2022/08/14 00:03:48;;;;;;;8.45;7.70;;;20.40;99.90;;;;;;4961956;28;20176;-76
2022/08/14 00:06:14;;;;;;;8.45;7.60;;;20.20;99.90;;;;;;4977878;28;20199;-74
2022/08/14 00:08:39;;;;;;;8.55;7.75;;;20.20;99.90;;;;;;4978232;28;20180;-75
2022/08/14 00:11:05;;;;;;;7.95;7.25;;;20.20;99.90;;;;;;4995484;28;20180;-75
2022/08/14 00:13:31;;;;;;;8.23;7.53;;;20.10;99.90;;;;;;4962139;28;20273;-75
2022/08/14 00:15:58;;;;;;;8.38;7.60;;;20.00;99.90;;;;;;4961940;28;20254;-75
2022/08/14 00:18:26;;;;;;;8.73;7.93;;;20.00;99.90;;;;;;4977540;28;20176;-74
2022/08/14 00:20:53;;;;;;;9.00;8.07;;;19.90;99.90;;;;;;4961823;28;20180;-75
2022/08/14 00:23:19;;;;;;;8.00;7.30;;;19.90;99.90;;;;;;4977891;28;20184;-75
2022/08/14 00:25:48;;;;;;;8.52;7.72;;;19.90;99.90;;;;;;4977419;28;20238;-75
2022/08/14 00:28:14;;;;;;;8.43;7.63;;;19.90;99.90;;;;;;4961782;28;20184;-75
2022/08/14 00:30:40;;;;;;;8.20;7.40;;;19.70;99.90;;;;;;4961729;28;20234;-75
2022/08/14 00:33:06;;;;;;;8.60;7.80;;;19.60;99.90;;;;;;4961448;28;20270;-75
2022/08/14 00:35:32;;;;;;;9.00;8.20;;;19.70;99.90;;;;;;4977677;28;20278;-76
2022/08/14 00:37:58;;;;;;;8.80;8.00;;;19.60;99.90;;;;;;4977410;28;20176;-75
2022/08/14 00:40:24;;;;;;;9.05;8.18;;;19.50;99.90;;;;;;4961456;28;20216;-75
2022/08/14 00:42:50;;;;;;;9.03;8.30;;;19.10;99.90;;;;;;4977572;28;20238;-75
2022/08/14 00:45:17;;;;;;;9.05;8.25;;;18.90;99.90;;;;;;4961212;28;20286;-75
2022/08/14 00:47:44;;;;;;;9.10;8.30;;;18.90;99.90;;;;;;4976910;28;20176;-75
2022/08/14 00:50:12;;;;;;;8.57;7.80;;;19.00;99.90;;;;;;4945830;28;20671;-75
2022/08/14 00:52:39;;;;;;;8.43;7.73;;;19.20;99.90;;;;;;4977737;28;20183;-75
2022/08/14 00:55:07;;;;;;;9.10;8.20;;;19.20;99.90;;;;;;4945236;28;20290;-75
2022/08/14 00:57:34;;;;;;;8.63;7.85;;;19.30;99.90;;;;;;4945340;28;20180;-75
2022/08/14 01:00:01;;;;;;;8.57;7.88;;;19.30;99.90;;;;;;4977130;28;20238;-75
2022/08/14 01:02:28;;;;;;;9.00;8.20;;;19.30;99.90;;;;;;4961029;28;20182;-75
2022/08/14 01:04:57;;;;;;;9.27;8.37;;;19.20;99.90;;;;;;4977206;28;20218;-75
2022/08/14 01:07:25;;;;;;;9.30;8.50;;;19.30;99.90;;;;;;4961164;28;20262;-75
2022/08/14 01:09:54;;;;;;;8.70;7.90;;;19.10;99.90;;;;;;4977157;28;20183;-75
2022/08/14 01:12:21;;;;;;;9.37;8.47;;;19.20;99.90;;;;;;4977026;28;20176;-75
2022/08/14 01:14:53;;;;;;;8.40;7.55;;;19.30;99.90;;;;;;4960617;28;20200;-75
2022/08/14 01:17:20;;;;;;;8.57;7.78;;;19.30;99.90;;;;;;4976863;28;20182;-75
2022/08/14 01:22:29;;;;;;;9.50;8.70;;;19.20;99.90;;;;;;4979881;28;20570;-75
2022/08/14 01:24:56;;;;;;;8.93;8.02;;;19.10;99.90;;;;;;4960570;28;20702;-75
2022/08/14 01:27:23;;;;;;;7.93;7.22;;;19.10;99.90;;;;;;4960460;28;20679;-75
2022/08/14 01:29:54;;;;;;;8.77;7.97;;;19.10;99.90;;;;;;4994051;28;20164;-75
2022/08/14 01:32:21;;;;;;;9.10;8.30;;;19.10;99.90;;;;;;4976517;28;20182;-75
2022/08/14 01:34:52;;;;;;;8.10;7.43;;;19.00;99.90;;;;;;4960568;28;20235;-76
2022/08/14 01:37:22;;;;;;;9.37;8.33;;;18.80;99.90;;;;;;4960407;28;20271;-75
2022/08/14 01:39:48;;;;;;;8.50;7.70;;;18.80;99.90;;;;;;4960326;28;20203;-75
2022/08/14 01:42:14;;;;;;;9.07;7.80;;;18.70;99.90;;;;;;4960569;28;20186;-76
2022/08/14 01:44:40;;;;;;;8.73;7.93;;;18.70;99.90;;;;;;4960282;28;20176;-75
2022/08/14 01:47:14;;;;;;;8.93;8.13;;;18.70;99.90;;;;;;4975860;28;20271;-75
2022/08/14 01:49:40;;;;;;;9.10;8.30;;;18.60;99.90;;;;;;4946081;28;20180;-75
2022/08/14 01:52:06;;;;;;;9.00;8.20;;;18.70;99.90;;;;;;4976214;28;20183;-75
2022/08/14 01:54:33;;;;;;;9.03;8.20;;;18.80;99.90;;;;;;4976083;28;20175;-75
2022/08/14 01:56:58;;;;;;;8.40;7.70;;;18.80;99.90;;;;;;4944089;28;20176;-75
2022/08/14 01:59:30;;;;;;;8.93;8.13;;;18.70;99.90;;;;;;4960129;28;20289;-75
2022/08/14 02:01:57;;;;;;;8.80;7.93;;;18.80;99.90;;;;;;4993906;28;20168;-76
2022/08/14 02:04:25;;;;;;;9.27;8.47;;;18.90;99.90;;;;;;4960415;28;20168;-75
2022/08/14 02:06:51;;;;;;;9.05;8.25;;;18.90;99.90;;;;;;4959517;28;20180;-75
2022/08/14 02:09:18;;;;;;;9.00;8.30;;;18.90;99.90;;;;;;4960074;28;20553;-76
2022/08/14 02:11:45;;;;;;;8.27;7.50;;;18.90;99.90;;;;;;4960101;28;20184;-75
2022/08/14 02:14:12;;;;;;;9.03;8.33;;;18.70;99.90;;;;;;4976071;28;20186;-75
2022/08/14 02:16:47;;;;;;;9.70;8.68;;;18.70;99.90;;;;;;4975559;28;20287;-75
2022/08/14 02:19:18;;;;;;;10.10;9.20;;;18.60;99.90;;;;;;4975701;28;20261;-75
2022/08/14 02:21:47;;;;;;;9.20;8.40;;;18.50;99.90;;;;;;4993008;28;20208;-75
2022/08/14 02:24:13;;;;;;;8.57;7.60;;;18.50;99.90;;;;;;4976001;28;20255;-75
2022/08/14 02:26:40;;;;;;;10.37;8.90;;;18.50;99.90;;;;;;4975429;28;20353;-76
2022/08/14 02:29:12;;;;;;;9.63;8.57;;;18.40;99.90;;;;;;4975551;28;20270;-75
2022/08/14 02:31:40;;;;;;;10.73;8.90;;;18.20;99.90;;;;;;4975703;28;20172;-75
2022/08/14 02:34:12;;;;;;;9.33;8.43;;;18.10;99.90;;;;;;4975643;28;20254;-75
2022/08/14 02:36:39;;;;;;;8.77;7.97;;;18.20;99.90;;;;;;4959804;28;20203;-75
2022/08/14 02:39:09;;;;;;;9.27;8.47;;;18.10;99.90;;;;;;4975871;28;20203;-75
2022/08/14 02:41:35;;;;;;;8.87;8.10;;;18.10;99.90;;;;;;4992802;28;20168;-75
2022/08/14 02:44:03;;;;;;;8.83;8.03;;;18.00;99.90;;;;;;4959555;28;20175;-75
2022/08/14 02:46:30;;;;;;;8.87;7.87;;;18.00;99.90;;;;;;4958793;28;20207;-76
2022/08/14 02:48:57;;;;;;;9.43;8.50;;;18.10;99.90;;;;;;4943605;28;20179;-75
2022/08/14 02:51:22;;;;;;;8.73;7.93;;;18.00;99.90;;;;;;4975357;28;20749;-75
2022/08/14 02:53:48;;;;;;;9.73;8.90;;;17.90;99.90;;;;;;4975550;28;20275;-75
2022/08/14 02:56:18;;;;;;;9.77;8.97;;;17.80;99.90;;;;;;4975221;28;20234;-75
2022/08/14 02:58:48;;;;;;;8.33;7.63;;;17.90;99.90;;;;;;4975163;28;20204;-75
2022/08/14 03:01:16;;;;;;;9.07;8.17;;;18.00;99.90;;;;;;4976227;28;20171;-75
2022/08/14 03:03:43;;;;;;;9.20;8.40;;;18.00;99.90;;;;;;4975399;28;20239;-75
2022/08/14 03:06:09;;;;;;;9.10;8.30;;;18.00;99.90;;;;;;4974987;28;20196;-75
2022/08/14 03:08:37;;;;;;;9.70;8.87;;;17.90;99.90;;;;;;4959321;28;20539;-75
2022/08/14 03:11:08;;;;;;;9.53;8.47;;;17.80;99.90;;;;;;4959485;28;20191;-75
2022/08/14 03:13:36;;;;;;;9.90;9.00;;;17.90;99.90;;;;;;4959416;28;20199;-75
2022/08/14 03:16:07;;;;;;;9.17;8.37;;;17.90;99.90;;;;;;4975211;28;20274;-76
2022/08/14 03:18:33;;;;;;;9.13;8.33;;;17.90;99.90;;;;;;4975095;28;20191;-75
2022/08/14 03:21:01;;;;;;;9.43;8.53;;;17.90;99.90;;;;;;4959464;28;20178;-75
2022/08/14 03:23:27;;;;;;;9.57;8.67;;;17.80;99.90;;;;;;4958972;28;20176;-75
2022/08/14 03:25:53;;;;;;;9.93;9.03;;;17.80;99.90;;;;;;4974901;28;20208;-75
2022/08/14 03:28:18;;;;;;;10.30;9.30;;;17.80;99.90;;;;;;4959105;28;20187;-75
2022/08/14 03:30:44;;;;;;;9.40;8.60;;;17.90;99.90;;;;;;4958882;28;20183;-75
2022/08/14 03:33:11;;;;;;;9.10;8.30;;;18.10;99.90;;;;;;4943244;28;20180;-76
2022/08/14 03:35:39;;;;;;;9.67;8.87;;;18.00;99.90;;;;;;4974840;28;20204;-76
2022/08/14 03:38:10;;;;;;;10.47;9.37;;;18.00;99.90;;;;;;4974929;28;20190;-75
2022/08/14 03:40:38;;;;;;;10.10;9.10;;;17.90;99.90;;;;;;4959009;28;20208;-75
2022/08/14 03:43:08;;;;;;;9.27;8.47;;;17.90;99.90;;;;;;4958843;28;20211;-75
2022/08/14 03:45:36;;;;;;;9.40;8.53;;;17.90;99.90;;;;;;4958744;28;20224;-75
2022/08/14 03:48:09;;;;;;;10.27;9.27;;;17.80;99.90;;;;;;4958828;28;20188;-75
2022/08/14 03:50:34;;;;;;;10.70;9.60;;;17.50;99.90;;;;;;4974891;28;20180;-75
2022/08/14 03:53:01;;;;;;;9.47;8.60;;;17.50;99.90;;;;;;4959223;28;20234;-75
2022/08/14 03:55:28;;;;;;;9.60;8.70;;;17.70;99.90;;;;;;4975067;28;20242;-75
2022/08/14 03:57:54;;;;;;;9.47;8.57;;;17.70;99.90;;;;;;4974635;28;20556;-75
2022/08/14 04:00:20;;;;;;;9.23;8.40;;;17.70;99.90;;;;;;4974905;28;20200;-76
2022/08/14 04:02:47;;;;;;;8.83;8.10;;;17.60;99.90;;;;;;4977803;28;20171;-75
2022/08/14 04:05:12;;;;;;;8.67;7.93;;;17.60;99.90;;;;;;4962197;28;20223;-75
2022/08/14 04:07:38;;;;;;;9.83;8.83;;;17.60;99.90;;;;;;4978184;28;20183;-76
2022/08/14 04:10:05;;;;;;;9.70;8.80;;;17.50;99.90;;;;;;4995682;28;20258;-76
2022/08/14 04:12:32;;;;;;;9.37;8.47;;;17.40;99.90;;;;;;4978265;28;20210;-75
2022/08/14 04:14:58;;;;;;;9.40;8.50;;;17.30;99.90;;;;;;4962229;28;20199;-75
2022/08/14 04:17:25;;;;;;;10.00;9.10;;;17.10;99.90;;;;;;4977871;28;20191;-75
2022/08/14 04:19:51;;;;;;;9.97;9.07;;;17.10;99.90;;;;;;4977803;28;20334;-76
2022/08/14 04:22:20;;;;;;;9.70;8.80;;;17.10;99.90;;;;;;4995336;28;20178;-75
2022/08/14 04:24:46;;;;;;;9.50;8.50;;;17.20;99.90;;;;;;4962836;28;20188;-75
2022/08/14 04:27:12;;;;;;;9.90;8.87;;;17.30;99.90;;;;;;4961654;28;20266;-75
2022/08/14 04:29:42;;;;;;;10.00;9.00;;;17.40;99.90;;;;;;4977930;28;20250;-75
2022/08/14 04:32:09;;;;;;;10.20;9.30;;;17.60;99.90;;;;;;4961810;28;20191;-75
2022/08/14 04:34:40;;;;;;;9.23;8.33;;;17.60;99.90;;;;;;4961513;28;20183;-75
2022/08/14 04:45:29;;;;;;;9.50;8.60;;;17.70;99.90;;;;;;4980458;28;20203;-75
2022/08/14 04:48:12;;;;;;;8.70;7.90;;;17.70;99.90;;;;;;4977023;28;20326;-75
2022/08/14 04:50:45;;;;;;;9.97;9.07;;;17.60;99.90;;;;;;4963652;28;20187;-75
2022/08/14 04:53:41;;;;;;;10.27;9.37;;;17.30;99.90;;;;;;4961752;28;20199;-75
2022/08/14 04:56:08;;;;;;;9.80;8.90;;;17.20;99.90;;;;;;4975966;28;20199;-75
2022/08/14 04:58:34;;;;;;;11.23;10.23;;;17.10;99.90;;;;;;4960956;28;20176;-75
2022/08/14 05:01:05;;;;;;;9.90;9.00;;;17.10;99.90;;;;;;4977075;28;20545;-75
2022/08/14 05:03:34;;;;;;;10.47;9.37;;;17.10;99.90;;;;;;4961218;28;20171;-75
2022/08/14 05:06:02;;;;;;;9.83;8.93;;;17.20;99.90;;;;;;4994452;28;20215;-75
2022/08/14 05:08:30;;;;;;;10.80;9.80;;;17.20;99.90;;;;;;4977131;28;20631;-75
2022/08/14 05:10:57;;;;;;;10.33;9.33;;;17.20;99.90;;;;;;4961116;28;20187;-75
2022/08/14 05:13:25;;;;;;;8.97;8.13;;;17.20;99.90;;;;;;4961084;28;20319;-75
2022/08/14 05:15:52;;;;;;;9.30;8.40;;;17.00;99.90;;;;;;4961209;28;20200;-75
2022/08/14 05:18:20;;;;;;;10.50;9.50;;;17.00;99.90;;;;;;4961605;28;20271;-75
2022/08/14 05:20:49;;;;;;;11.43;10.23;;;17.00;99.90;;;;;;4976974;28;20216;-76
2022/08/14 05:23:17;;;;;;;11.70;10.60;;;17.00;99.90;;;;;;4961532;28;20257;-75
2022/08/14 05:25:43;;;;;;;11.47;10.47;;;17.10;99.90;;;;;;4961031;28;20211;-74
2022/08/14 05:28:25;;;;;;;11.40;9.67;;;17.30;99.90;;;;;;4976796;28;20675;-75
2022/08/14 05:30:54;;;;;;;10.60;9.60;;;17.40;99.90;;;;;;4960708;28;20186;-76
2022/08/14 05:33:23;;;;;;;11.27;9.97;;;17.40;99.90;;;;;;4945187;28;20183;-75
2022/08/14 05:35:51;;;;;;;10.60;9.63;;;17.60;99.90;;;;;;4976798;28;20246;-75
2022/08/14 05:38:19;;;;;;;10.73;9.77;;;17.60;99.90;;;;;;4960750;28;20180;-75
2022/08/14 05:40:46;;;;;;;11.70;10.60;;;17.60;99.90;;;;;;4976657;28;20203;-75
2022/08/14 05:43:15;;;;;;;10.90;10.00;;;17.70;99.90;;;;;;4976736;28;20175;-75
2022/08/14 05:45:41;;;;;;;10.70;9.70;;;17.80;99.90;;;;;;4960575;28;20207;-75
2022/08/14 05:48:11;;;;;;;11.20;10.20;;;18.00;99.90;;;;;;4944481;28;20175;-75
2022/08/14 05:50:37;;;;;;;11.13;9.80;;;18.00;99.90;;;;;;4994303;28;20254;-75
2022/08/14 05:53:03;;;;;;;10.40;9.40;;;18.10;99.90;;;;;;4960500;28;20278;-75
2022/08/14 05:55:29;;;;;;;10.33;9.43;;;18.10;99.90;;;;;;4960495;28;20204;-75
2022/08/14 05:57:56;;;;;;;10.63;9.57;;;18.20;99.90;;;;;;4976496;28;20190;-75
2022/08/14 06:00:25;;;;;;;11.33;9.40;;;18.20;99.90;;;;;;4976358;28;20207;-75
2022/08/14 06:02:51;;;;;;;10.57;9.67;;;18.30;99.90;;;;;;4960806;28;20203;-75
2022/08/14 06:05:16;;;;;;;10.63;9.63;;;18.40;99.90;;;;;;4976285;28;20196;-75
2022/08/14 06:07:42;;;;;;;10.37;9.40;;;18.50;99.90;;;;;;4960421;28;20203;-75
2022/08/14 06:10:09;;;;;;;11.43;10.33;;;18.60;99.90;;;;;;4944373;28;20180;-75
2022/08/14 06:12:36;;;;;;;10.87;9.97;;;18.60;99.90;;;;;;4944159;28;20188;-75
2022/08/14 06:15:02;;;;;;;10.73;9.73;;;18.70;99.90;;;;;;4993413;28;20188;-76
2022/08/14 06:17:27;;;;;;;11.47;10.47;;;18.70;99.90;;;;;;4975870;28;20242;-75
2022/08/14 06:19:53;;;;;;;11.20;10.20;;;18.80;99.90;;;;;;4944307;28;20286;-75
2022/08/14 06:22:19;;;;;;;11.10;10.10;;;18.90;99.90;;;;;;4959962;28;20180;-75
2022/08/14 06:24:44;;;;;;;11.83;10.70;;;19.00;99.90;;;;;;4959529;28;20226;-75
2022/08/14 06:27:10;;;;;;;11.30;10.30;;;19.20;99.90;;;;;;5001213;23;20234;-75
2022/08/14 06:29:36;;;;;;;11.33;10.23;;;19.20;99.90;;;;;;4964332;28;20175;-76
2022/08/14 06:32:03;;;;;;;11.33;10.33;;;19.30;99.90;;;;;;4975843;28;20179;-77
2022/08/14 06:34:29;;;;;;;11.27;10.27;;;19.50;99.90;;;;;;4975686;28;20728;-77
2022/08/14 06:36:55;;;;;;;10.83;9.83;;;19.60;99.90;;;;;;4959243;28;20203;-77
2022/08/14 06:39:22;;;;;;;11.30;10.30;;;19.70;99.90;;;;;;4959443;28;20206;-77
2022/08/14 06:41:47;;;;;;;10.50;9.60;;;19.70;99.90;;;;;;4959360;28;20642;-77
2022/08/14 06:44:13;;;;;;;10.30;9.40;;;19.90;99.90;;;;;;4975904;28;20207;-77
2022/08/14 06:46:39;;;;;;;10.27;9.37;;;20.00;99.90;;;;;;4958916;28;20195;-77
2022/08/14 06:49:06;;;;;;;10.43;9.47;;;20.10;99.90;;;;;;4975635;28;20270;-77
2022/08/14 06:51:34;;;;;;;11.13;10.03;;;20.20;99.90;;;;;;4943626;28;20175;-77
2022/08/14 06:53:59;;;;;;;10.60;9.60;;;20.40;99.90;;;;;;4959483;28;20266;-77
2022/08/14 06:56:25;;;;;;;10.30;9.25;;;20.50;99.90;;;;;;4959014;28;20299;-77
2022/08/14 06:58:50;;;;;;;10.75;9.70;;;20.70;99.90;;;;;;4959466;28;20183;-77
2022/08/14 07:06:44;;;;;;;10.75;9.75;;;21.10;99.90;;;;;;4964404;28;20203;-77
2022/08/14 07:09:10;;;;;;;10.65;9.68;;;21.30;99.90;;;;;;4959173;28;20183;-77
2022/08/14 07:11:36;;;;;;;11.15;9.82;;;21.40;99.90;;;;;;4959268;28;20263;-77
2022/08/14 07:14:02;;;;;;;10.65;9.65;;;21.50;99.90;;;;;;4959315;28;20234;-77
2022/08/14 07:16:27;;;;;;;10.77;9.77;;;21.70;99.90;;;;;;4975111;28;20199;-77
2022/08/14 07:18:53;;;;;;;10.70;9.80;;;21.70;99.90;;;;;;4943023;28;20200;-77
2022/08/14 07:21:18;;;;;;;9.98;9.07;;;21.80;99.90;;;;;;4959107;28;20681;-77
2022/08/14 07:23:44;;;;;;;9.70;8.70;;;22.00;99.90;;;;;;4975121;28;20178;-77
2022/08/14 07:26:10;;;;;;;8.85;7.97;;;22.10;99.90;;;;;;4942689;28;20561;-77
2022/08/14 07:28:37;;;;;;;8.10;7.40;;;22.30;99.90;;;;;;4975594;28;20177;-77
2022/08/14 07:31:09;;;;;;;8.68;7.88;;;22.40;99.90;;;;;;4975399;28;20172;-77
2022/08/14 07:33:36;;;;;;;7.80;7.20;;;22.50;99.90;;;;;;4992493;28;20635;-77
2022/08/14 07:36:06;;;;;;;8.43;7.72;;;22.60;99.90;;;;;;4975182;28;20192;-77
2022/08/14 07:38:32;;;;;;;8.18;7.47;;;22.70;99.90;;;;;;4996014;28;20196;-77
2022/08/14 07:40:58;;;;;;;8.07;7.35;;;22.90;99.90;;;;;;4978686;28;20235;-77
2022/08/14 07:43:24;;;;;;;7.50;6.80;;;23.00;99.90;;;;;;4946724;28;20175;-77
2022/08/14 07:45:51;;;;;;;7.95;7.20;;;23.20;99.90;;;;;;4978285;28;20191;-77
2022/08/14 07:48:17;;;;;;;7.88;7.20;;;23.30;99.90;;;;;;4978476;28;20171;-77
2022/08/14 07:50:43;;;;;;;8.13;7.43;;;23.40;99.90;;;;;;4946630;28;20561;-77
2022/08/14 07:53:09;;;;;;;7.93;7.22;;;23.50;99.90;;;;;;4946552;28;20233;-77
2022/08/14 07:55:35;;;;;;;8.32;7.47;;;23.60;99.90;;;;;;4962399;28;20601;-77
2022/08/14 07:58:01;;;;;;;7.88;7.18;;;23.60;99.90;;;;;;4962320;28;20183;-78
2022/08/14 08:00:27;;;;;;;7.47;6.88;;;23.70;99.90;;;;;;4978221;28;20211;-77
2022/08/14 08:02:54;;;;;;;7.90;7.20;;;23.70;99.90;;;;;;4962385;28;20176;-77
2022/08/14 08:05:25;;;;;;;8.23;7.43;;;23.80;99.90;;;;;;4962026;28;20172;-77
2022/08/14 08:07:52;;;;;;;8.50;7.68;;;23.90;99.90;;;;;;4946891;28;20658;-77
2022/08/14 08:10:33;;;;;;;7.63;7.03;;;24.10;99.90;;;;;;4962216;28;20556;-77
2022/08/14 08:13:11;;;;;;;7.50;6.90;;;24.10;99.90;;;;;;4995577;28;20167;-77
2022/08/14 08:15:43;;;;;;;8.00;7.20;;;24.30;99.90;;;;;;4946734;28;20546;-77
2022/08/14 08:18:10;;;;;;;7.97;7.13;;;24.40;99.90;;;;;;4962269;28;20230;-77
2022/08/14 08:20:42;;;;;;;7.03;6.43;;;24.50;99.90;;;;;;4962297;28;20214;-76
2022/08/14 08:23:08;;;;;;;6.45;5.85;;;24.60;99.90;;;;;;4978000;28;20176;-77
2022/08/14 08:25:37;;;;;;;6.80;6.20;;;24.70;99.90;;;;;;4977691;28;20178;-77
2022/08/14 08:28:09;;;;;;;6.22;5.72;;;24.70;99.90;;;;;;4945778;28;20183;-77
2022/08/14 08:30:39;;;;;;;6.63;5.97;;;24.80;99.90;;;;;;4978266;28;20673;-77
2022/08/14 08:33:06;;;;;;;6.15;5.65;;;24.90;99.90;;;;;;4961711;28;20208;-77
2022/08/14 08:35:35;;;;;;;5.88;5.38;;;24.90;99.90;;;;;;4977781;28;20187;-77
2022/08/14 08:38:04;;;;;;;6.10;5.60;;;25.10;99.90;;;;;;4961454;28;20247;-77
2022/08/14 08:40:36;;;;;;;5.55;5.15;;;25.30;99.90;;;;;;4961687;28;20298;-77
2022/08/14 08:43:05;;;;;;;4.68;4.38;;;25.50;99.90;;;;;;4977623;28;20180;-77
2022/08/14 08:45:32;;;;;;;5.10;4.65;;;25.70;99.90;;;;;;4994875;28;20159;-77
2022/08/14 08:47:58;;;;;;;5.50;4.97;;;25.90;99.90;;;;;;4960465;28;20180;-77
2022/08/14 08:50:30;;;;;;;4.40;4.00;;;26.20;99.90;;;;;;4977507;28;20238;-77
2022/08/14 08:52:59;;;;;;;4.97;4.57;;;26.40;99.90;;;;;;4946285;28;20211;-77
2022/08/14 08:55:40;;;;;;;4.75;4.35;;;26.50;99.90;;;;;;4977262;28;20192;-77
2022/08/14 08:58:11;;;;;;;4.88;4.47;;;26.60;99.90;;;;;;4977092;28;20175;-77
2022/08/14 09:00:39;;;;;;;4.85;4.35;;;26.70;99.90;;;;;;4945372;28;20231;-77
2022/08/14 09:03:19;;;;;;;4.72;4.32;;;26.90;99.90;;;;;;4961281;28;20646;-77
2022/08/14 09:05:57;;;;;;;4.80;4.40;;;26.90;99.90;;;;;;4978014;28;20156;-77
2022/08/14 09:08:27;;;;;;;4.63;4.22;;;26.70;99.90;;;;;;4961107;28;20184;-77
2022/08/14 09:10:54;;;;;;;4.78;4.32;;;26.70;99.90;;;;;;4977014;28;20186;-77
2022/08/14 09:13:24;;;;;;;4.72;4.40;;;26.90;99.90;;;;;;4976999;28;20558;-77
2022/08/14 09:15:52;;;;;;;4.22;3.92;;;27.20;99.90;;;;;;4976873;28;20689;-77
2022/08/14 09:18:19;;;;;;;4.38;4.03;;;27.50;99.90;;;;;;4976884;28;20184;-77
2022/08/14 09:20:48;;;;;;;4.22;3.83;;;27.60;99.90;;;;;;4976619;28;20235;-77
2022/08/14 09:23:14;;;;;;;4.38;4.05;;;27.70;99.90;;;;;;4977018;28;20225;-77
2022/08/14 09:25:43;;;;;;;4.38;4.00;;;27.70;99.90;;;;;;4976656;28;20545;-77
2022/08/14 09:28:10;;;;;;;3.97;3.67;;;27.70;99.90;;;;;;4994056;28;20167;-77
2022/08/14 09:30:40;;;;;;;3.92;3.63;;;27.40;99.90;;;;;;4960761;28;20733;-77
2022/08/14 09:33:21;;;;;;;3.85;3.55;;;27.70;99.90;;;;;;4960889;28;20183;-77
2022/08/14 09:36:16;;;;;;;4.07;3.67;;;27.70;99.90;;;;;;4976747;28;20215;-77
2022/08/14 09:39:00;;;;;;;3.80;3.50;;;27.70;99.90;;;;;;4993812;28;20172;-77
2022/08/14 09:41:53;;;;;;;3.88;3.50;;;27.60;99.90;;;;;;4976669;28;20174;-77
2022/08/14 09:44:37;;;;;;;3.90;3.50;;;27.70;99.90;;;;;;4976479;28;20180;-77
2022/08/14 09:47:03;;;;;;;4.55;3.58;;;27.90;98.70;;;;;;4993210;28;20183;-77
2022/08/14 09:49:35;;;;;;;3.83;3.53;;;28.00;97.90;;;;;;4976544;28;20210;-77
2022/08/14 09:52:10;;;;;;;4.00;3.53;;;28.20;98.00;;;;;;4960474;28;20278;-77
2022/08/14 09:54:42;;;;;;;5.57;3.60;;;28.10;96.90;;;;;;4960278;28;20186;-76
2022/08/14 09:57:29;;;;;;;4.07;3.67;;;28.10;97.00;;;;;;4975920;28;20198;-77
2022/08/14 09:59:55;;;;;;;3.65;3.35;;;28.10;97.80;;;;;;4975266;28;20195;-77
2022/08/14 10:02:31;;;;;;;3.70;3.40;;;28.40;96.80;;;;;;4975968;28;20179;-77
2022/08/14 10:05:09;;;;;;;3.85;3.55;;;28.70;96.30;;;;;;4960239;28;20179;-77
2022/08/14 10:07:49;;;;;;;4.03;3.72;;;28.50;95.90;;;;;;4975787;28;20219;-77
2022/08/14 10:10:46;;;;;;;3.60;3.30;;;28.60;95.40;;;;;;4993377;28;20175;-77
2022/08/14 10:13:23;;;;;;;3.80;3.50;;;28.80;95.30;;;;;;4975599;28;20180;-77
2022/08/14 10:15:50;;;;;;;3.97;3.58;;;28.90;94.40;;;;;;4993142;28;20270;-77
2022/08/14 10:18:18;;;;;;;3.65;3.35;;;29.00;94.90;;;;;;4975786;28;20172;-76
2022/08/14 10:20:59;;;;;;;3.70;3.40;;;29.20;93.90;;;;;;4975908;28;20200;-76
2022/08/14 10:23:28;;;;;;;3.70;3.40;;;29.30;94.60;;;;;;4993228;28;20230;-77
2022/08/14 10:26:04;;;;;;;3.70;3.40;;;29.60;94.50;;;;;;4975406;28;20294;-77
2022/08/14 10:28:41;;;;;;;3.58;3.28;;;29.70;91.90;;;;;;4975584;28;20186;-77
2022/08/14 10:31:22;;;;;;;3.30;3.00;;;29.40;91.50;;;;;;4959436;28;20591;-77
2022/08/14 10:34:06;;;;;;;3.50;3.20;;;29.50;90.80;;;;;;4959538;28;20208;-77
2022/08/14 10:36:37;;;;;;;3.58;3.30;;;29.80;91.20;;;;;;4959345;28;20206;-77
2022/08/14 10:39:15;;;;;;;3.70;3.40;;;30.00;89.60;;;;;;4975627;28;20222;-77
2022/08/14 10:41:42;;;;;;;3.85;3.55;;;30.00;90.30;;;;;;4975852;28;20174;-77
2022/08/14 10:44:13;;;;;;;3.92;3.60;;;29.90;89.00;;;;;;4959318;28;20275;-77
2022/08/14 10:47:01;;;;;;;3.53;3.22;;;30.10;89.00;;;;;;4975295;28;20286;-77
2022/08/14 10:49:28;;;;;;;3.35;3.05;;;30.30;88.90;;;;;;4975630;28;20233;-77
2022/08/14 10:52:24;;;;;;;3.92;3.53;;;30.50;87.30;;;;;;4975376;28;20172;-77
2022/08/14 10:54:51;;;;;;;4.18;3.53;;;30.50;86.60;;;;;;4984304;28;20187;-77
2022/08/14 10:57:19;;;;;;;4.15;3.50;;;30.60;87.00;;;;;;4992656;28;20219;-77
2022/08/14 10:59:57;;;;;;;3.75;3.45;;;30.40;84.50;;;;;;4975431;28;20199;-77
2022/08/14 11:02:35;;;;;;;3.78;3.47;;;30.70;83.50;;;;;;4975439;28;20183;-77
2022/08/14 11:05:14;;;;;;;4.50;3.85;;;30.10;84.70;;;;;;4959195;28;20266;-77
2022/08/14 11:07:53;;;;;;;4.10;3.80;;;30.00;86.30;;;;;;4975149;28;20195;-77
2022/08/14 11:10:20;;;;;;;3.78;3.47;;;30.30;87.40;;;;;;4976140;28;20187;-77
2022/08/14 11:12:49;;;;;;;4.00;3.70;;;30.70;85.20;;;;;;4963418;28;20183;-77
2022/08/14 11:15:23;;;;;;;4.03;3.72;;;30.40;85.40;;;;;;4979374;28;20234;-77
2022/08/14 11:17:50;;;;;;;3.90;3.60;;;29.90;84.30;;;;;;4963589;28;20199;-77
2022/08/14 11:20:25;;;;;;;4.35;3.95;;;30.50;85.00;;;;;;4979065;28;20619;-77
2022/08/14 11:22:53;;;;;;;3.88;3.58;;;30.80;83.60;;;;;;4962846;28;20182;-77
2022/08/14 11:25:22;;;;;;;3.78;3.47;;;30.90;79.40;;;;;;4962692;28;20266;-77
2022/08/14 11:27:50;;;;;;;3.88;3.58;;;31.30;85.10;;;;;;4963045;28;20211;-77
2022/08/14 11:30:21;;;;;;;4.18;3.78;;;31.80;82.60;;;;;;4963258;28;20183;-77
2022/08/14 11:32:50;;;;;;;4.38;3.97;;;32.10;77.20;;;;;;4979593;28;20237;-77
2022/08/14 11:35:18;;;;;;;4.20;3.80;;;32.00;79.20;;;;;;4962575;28;20194;-77
2022/08/14 11:38:02;;;;;;;3.90;3.60;;;32.10;80.10;;;;;;4962227;28;20230;-77
2022/08/14 11:40:33;;;;;;;3.78;3.47;;;32.30;75.70;;;;;;4978783;28;20206;-77
2022/08/14 11:43:00;;;;;;;3.92;3.53;;;32.20;74.10;;;;;;4978904;28;20800;-77
2022/08/14 11:45:33;;;;;;;4.03;3.63;;;32.50;74.00;;;;;;4996057;28;20206;-78
2022/08/14 11:48:01;;;;;;;3.65;3.35;;;32.60;69.70;;;;;;4978186;28;20533;-77
2022/08/14 11:50:30;;;;;;;3.50;3.20;;;32.80;67.60;;;;;;4978664;28;20179;-77
2022/08/14 11:52:58;;;;;;;3.50;3.20;;;32.20;62.70;;;;;;4978501;28;20630;-77
2022/08/14 11:55:25;;;;;;;3.67;3.35;;;32.00;67.70;;;;;;4962435;28;20246;-78
2022/08/14 11:58:08;;;;;;;3.97;3.67;;;32.60;64.00;;;;;;4978220;28;20203;-77
2022/08/14 12:00:48;;;;;;;3.47;3.20;;;32.00;63.70;;;;;;4978764;28;20207;-77
2022/08/14 12:03:14;;;;;;;3.42;3.13;;;31.60;63.00;;;;;;4962249;28;20172;-77
2022/08/14 12:05:41;;;;;;;3.88;3.20;;;31.30;64.20;;;;;;4978268;28;20180;-77
2022/08/14 12:08:08;;;;;;;3.53;3.22;;;31.40;63.10;;;;;;4978186;28;20176;-77
2022/08/14 12:10:38;;;;;;;3.88;3.58;;;31.30;62.50;;;;;;4962065;28;20555;-77
2022/08/14 12:13:13;;;;;;;4.03;3.72;;;31.10;64.40;;;;;;4978009;28;20570;-77
2022/08/14 12:15:40;;;;;;;3.92;3.58;;;31.40;63.30;;;;;;4977965;28;20176;-77
2022/08/14 12:18:06;;;;;;;4.13;3.80;;;31.70;62.50;;;;;;4962075;28;20720;-77
2022/08/14 12:20:36;;;;;;;4.05;3.63;;;31.40;61.60;;;;;;4995348;28;20242;-77
2022/08/14 12:23:05;;;;;;;4.78;3.60;;;31.40;62.00;;;;;;4977076;28;20202;-77
2022/08/14 12:25:32;;;;;;;3.70;3.40;;;31.50;64.80;;;;;;4961586;28;20182;-77
2022/08/14 12:28:04;;;;;;;3.78;3.38;;;32.30;59.60;;;;;;5001320;23;20227;-76
2022/08/14 12:30:32;;;;;;;4.30;3.33;;;32.20;58.20;;;;;;4978712;28;20180;-76
2022/08/14 12:32:59;;;;;;;3.50;3.20;;;32.90;61.10;;;;;;4994087;28;20720;-76
2022/08/14 12:35:42;;;;;;;3.55;3.25;;;33.10;57.50;;;;;;4977908;28;20207;-76
2022/08/14 12:38:12;;;;;;;3.42;3.13;;;32.60;56.30;;;;;;4993711;28;20196;-76
2022/08/14 12:40:48;;;;;;;4.82;3.70;;;32.10;56.80;;;;;;4977832;28;20199;-76
2022/08/14 12:43:17;;;;;;;3.60;3.30;;;32.20;57.20;;;;;;4978055;28;20204;-76
2022/08/14 12:45:50;;;;;;;3.75;3.33;;;32.30;56.00;;;;;;4978020;28;20248;-76
2022/08/14 12:48:20;;;;;;;5.05;3.60;;;31.90;57.00;;;;;;4946647;28;20266;-76
2022/08/14 12:50:50;;;;;;;3.67;3.38;;;31.80;57.00;;;;;;4995343;28;20180;-76
2022/08/14 12:53:17;;;;;;;3.75;3.45;;;32.00;56.80;;;;;;4978243;28;20187;-76
2022/08/14 12:55:44;;;;;;;4.82;3.72;;;32.20;57.40;;;;;;4962013;28;20191;-76
2022/08/14 12:58:10;;;;;;;3.15;2.95;;;32.20;56.90;;;;;;4961800;28;20693;-76
2022/08/14 13:00:46;;;;;;;4.35;3.70;;;32.20;57.50;;;;;;4977494;28;20212;-76
2022/08/14 13:03:23;;;;;;;3.63;3.33;;;32.00;58.20;;;;;;4977355;28;20737;-76
2022/08/14 13:05:49;;;;;;;3.85;3.50;;;31.80;57.10;;;;;;4977418;28;20172;-76
2022/08/14 13:08:15;;;;;;;3.60;3.30;;;31.90;59.80;;;;;;4945097;28;20215;-76
2022/08/14 13:10:41;;;;;;;5.53;3.58;;;32.20;57.50;;;;;;4961300;28;20211;-76